This is the latest recevied weather packets stored in our database for station/object OE3UKW. If no packets are shown the sender has not sent any weather packets the latest 1 day(s).
| Time | Temp. | Humidity | Pressure | Rain* | Wind** | Luminosity | Snow |
|---|---|---|---|---|---|---|---|
| 1777990270 | 27.78° C | 22% | 1006.7 hPa | 0 mm | 8.49 m/s, 159° | 559 W/m² | - |
| 1777989670 | 27.78° C | 23% | 1006.9 hPa | 0 mm | 6.71 m/s, 173° | 584 W/m² | - |
| 1777989070 | 27.78° C | 19% | 1006.9 hPa | 0 mm | 7.6 m/s, 196° | 616 W/m² | - |
| 1777988485 | 27.78° C | 16% | 1007 hPa | 0 mm | 9.83 m/s, 192° | 634 W/m² | - |
| 1777987870 | 28.33° C | 17% | 1007.1 hPa | 0 mm | 8.94 m/s, 152° | 656 W/m² | - |
| 1777987270 | 28.33° C | 17% | 1007.2 hPa | 0 mm | 7.6 m/s, 167° | 673 W/m² | - |
| 1777986670 | 27.78° C | 16% | 1007.2 hPa | 0 mm | 5.81 m/s, 186° | 699 W/m² | - |
| 1777986070 | 27.78° C | 17% | 1007.3 hPa | 0 mm | 5.81 m/s, 167° | 715 W/m² | - |
| 1777985470 | 27.78° C | 17% | 1007.6 hPa | 0 mm | 6.71 m/s, 162° | 736 W/m² | - |
| 1777984870 | 27.78° C | 17% | 1007.8 hPa | 0 mm | 9.83 m/s, 161° | 750 W/m² | - |
| 1777984270 | 27.22° C | 18% | 1007.8 hPa | 0 mm | 8.05 m/s, 192° | 765 W/m² | - |
| 1777983670 | 27.22° C | 19% | 1008.1 hPa | 0 mm | 7.6 m/s, 130° | 776 W/m² | - |
| 1777982471 | 26.67° C | 23% | 1008.3 hPa | 0 mm | 4.02 m/s, 166° | 807 W/m² | - |
| 1777981871 | 26.67° C | 22% | 1008.5 hPa | 0 mm | 6.71 m/s, 175° | 820 W/m² | - |
| 1777981271 | 26.67° C | 21% | 1008.7 hPa | 0 mm | 6.71 m/s, 159° | 834 W/m² | - |
| 1777980671 | 26.67° C | 21% | 1008.6 hPa | 0 mm | 7.15 m/s, 184° | 854 W/m² | - |
| 1777980071 | 26.11° C | 25% | 1008.8 hPa | 0 mm | 6.26 m/s, 175° | 853 W/m² | - |
| 1777979471 | 25.56° C | 25% | 1008.8 hPa | 0 mm | 8.49 m/s, 152° | 832 W/m² | - |
| 1777978871 | 25.56° C | 25% | 1009 hPa | 0 mm | 8.49 m/s, 138° | 684 W/m² | - |
| 1777978271 | 25.56° C | 24% | 1008.9 hPa | 0 mm | 8.49 m/s, 163° | 878 W/m² | - |
| 1777977671 | 25.56° C | 25% | 1009 hPa | 0 mm | 8.94 m/s, 152° | 875 W/m² | - |
| 1777977070 | 25° C | 26% | 1009.1 hPa | 0 mm | 7.6 m/s, 144° | 742 W/m² | - |
| 1777976471 | 24.44° C | 31% | 1009.3 hPa | 0 mm | 6.26 m/s, 130° | 820 W/m² | - |
| 1777975871 | 23.89° C | 32% | 1009.5 hPa | 0 mm | 7.15 m/s, 145° | 852 W/m² | - |
| 1777975270 | 23.33° C | 32% | 1009.7 hPa | 0 mm | 5.81 m/s, 115° | 854 W/m² | - |
* Rain latest hour (hover to see other rain measurements)
** Current wind speed in m/s (hover to see current wind gust speed)